Terminal Aerodrome Forecast
Issued by NWS

Home | Current Version | Previous Version | Text Only | Print | Product List | Glossary On
Versions: 1 2 3 4 5 6 7 8 9 10 11 12 13 14 15 16 17 18 19 20 21
000
FTUS41 KBGM 312300 RRA
TAFITH
TAF
KITH 312342Z 0100/0124 32007KT P6SM OVC035
      TEMPO 0102/0105 OVC015
     FM010500 27005KT P6SM OVC015
     FM011200 29007KT P6SM OVC015
     FM012000 29007KT 1 1/2SM -SN OVC015=

USA.gov is the U.S. government's official web portal to all federal, state and local government web resources and services.